createdAt,value
2017-07-16T00:01:04.277Z,66.70
2017-07-16T00:03:31.908Z,66.80
2017-07-16T00:06:00.200Z,66.40
2017-07-16T00:08:27.663Z,66.80
2017-07-16T00:10:55.287Z,66.70
2017-07-16T00:13:22.759Z,67.00
2017-07-16T00:15:50.200Z,67.00
2017-07-16T00:18:18.232Z,67.30
2017-07-16T00:20:45.691Z,67.30
2017-07-16T00:23:13.149Z,67.40
2017-07-16T00:25:40.702Z,67.30
2017-07-16T00:28:08.166Z,67.30
2017-07-16T00:30:35.623Z,67.60
2017-07-16T00:33:03.125Z,67.50
2017-07-16T00:35:30.595Z,67.20
2017-07-16T00:37:58.043Z,67.30
2017-07-16T00:40:25.570Z,67.50
2017-07-16T00:42:53.029Z,67.80
2017-07-16T00:45:20.492Z,68.00
2017-07-16T00:47:48.008Z,68.00
2017-07-16T00:50:15.469Z,67.90
2017-07-16T00:52:42.931Z,68.10
2017-07-16T00:55:10.397Z,67.90
2017-07-16T00:57:37.868Z,67.80
2017-07-16T01:00:05.400Z,67.70
2017-07-16T01:02:32.881Z,67.60
2017-07-16T01:05:00.343Z,67.80
2017-07-16T01:07:27.831Z,68.10
2017-07-16T01:09:55.292Z,68.00
2017-07-16T01:12:22.756Z,67.80
2017-07-16T01:14:50.606Z,67.80
2017-07-16T01:17:18.052Z,67.90
2017-07-16T01:19:45.526Z,67.70
2017-07-16T01:22:13.018Z,67.70
2017-07-16T01:24:40.494Z,67.90
2017-07-16T01:27:07.970Z,68.00
2017-07-16T01:29:35.412Z,67.90
2017-07-16T01:32:02.898Z,68.00
2017-07-16T01:34:30.567Z,68.10
2017-07-16T01:36:58.020Z,68.20
2017-07-16T01:39:25.474Z,68.20
2017-07-16T01:41:52.973Z,68.10
2017-07-16T01:44:20.431Z,68.10
2017-07-16T01:46:47.921Z,68.00
2017-07-16T01:49:15.422Z,67.40
2017-07-16T01:51:42.904Z,67.30
2017-07-16T01:54:10.719Z,67.60
2017-07-16T01:56:38.196Z,67.60
2017-07-16T01:59:05.650Z,67.40
2017-07-16T02:01:33.160Z,67.30
2017-07-16T02:04:00.645Z,67.40
2017-07-16T02:06:28.101Z,67.40
2017-07-16T02:08:55.565Z,67.50
2017-07-16T02:11:23.068Z,67.50
2017-07-16T02:13:50.522Z,67.50
2017-07-16T02:16:17.979Z,67.50
2017-07-16T02:18:45.442Z,67.90
2017-07-16T02:21:13.119Z,67.90
2017-07-16T02:23:40.565Z,67.80
2017-07-16T02:26:08.011Z,68.10
2017-07-16T02:28:35.540Z,68.20
2017-07-16T02:31:02.992Z,67.90
2017-07-16T02:33:30.465Z,67.90
2017-07-16T02:35:57.964Z,67.90
2017-07-16T02:38:26.312Z,67.90
2017-07-16T02:40:53.761Z,67.90
2017-07-16T02:43:21.626Z,68.10
2017-07-16T02:45:49.296Z,68.10
2017-07-16T02:48:16.775Z,68.00
2017-07-16T02:50:44.230Z,68.20
2017-07-16T02:53:12.097Z,67.50
2017-07-16T02:55:39.590Z,67.50
2017-07-16T02:58:07.111Z,67.80
2017-07-16T03:00:34.581Z,67.90
2017-07-16T03:03:02.022Z,67.90
2017-07-16T03:05:29.508Z,68.10
2017-07-16T03:07:57.360Z,68.50
2017-07-16T03:10:24.820Z,68.50
2017-07-16T03:12:52.326Z,68.60
2017-07-16T03:15:19.761Z,68.50
2017-07-16T03:17:47.221Z,68.60
2017-07-16T03:20:14.737Z,68.70
2017-07-16T03:22:42.188Z,68.90
2017-07-16T03:25:21.468Z,69.00
2017-07-16T03:27:48.952Z,69.00
2017-07-16T03:30:16.833Z,68.80
2017-07-16T03:32:44.289Z,68.70
2017-07-16T03:35:12.165Z,69.00
2017-07-16T03:37:40.024Z,68.90
2017-07-16T03:40:07.504Z,68.80
2017-07-16T03:42:34.953Z,68.80
2017-07-16T03:45:02.393Z,69.10
2017-07-16T03:47:29.877Z,69.20
2017-07-16T03:49:57.725Z,69.00
2017-07-16T03:52:25.217Z,69.00
2017-07-16T03:54:53.062Z,69.00
2017-07-16T03:57:20.521Z,69.00
2017-07-16T03:59:47.987Z,68.70
2017-07-16T04:02:15.445Z,68.50
2017-07-16T04:04:42.925Z,68.70
2017-07-16T04:07:10.781Z,68.70
2017-07-16T04:09:38.236Z,68.70
2017-07-16T04:12:05.734Z,68.80
2017-07-16T04:14:34.425Z,69.20
2017-07-16T04:17:02.269Z,68.90
2017-07-16T04:19:29.806Z,68.90
2017-07-16T04:21:57.314Z,69.10
2017-07-16T04:24:24.787Z,69.00
2017-07-16T04:26:52.658Z,69.20
2017-07-16T04:29:20.505Z,69.40
2017-07-16T04:31:48.896Z,69.40
2017-07-16T04:34:16.366Z,69.80
2017-07-16T04:36:43.813Z,69.80
2017-07-16T04:39:11.320Z,69.70
2017-07-16T04:41:38.776Z,69.50
2017-07-16T04:44:06.817Z,69.50
2017-07-16T04:46:35.265Z,69.50
2017-07-16T04:49:02.722Z,69.50
2017-07-16T04:51:30.185Z,69.70
2017-07-16T04:53:57.672Z,69.70
2017-07-16T04:56:25.162Z,69.70
2017-07-16T04:58:52.614Z,69.70
2017-07-16T05:01:20.108Z,69.60
2017-07-16T05:03:47.957Z,68.80
2017-07-16T05:06:15.419Z,68.80
2017-07-16T05:08:42.887Z,69.20
2017-07-16T05:11:10.519Z,69.20
2017-07-16T05:13:37.989Z,68.90
2017-07-16T05:16:05.961Z,68.50
2017-07-16T05:18:33.438Z,68.30
2017-07-16T05:21:00.894Z,68.40
2017-07-16T05:23:28.379Z,68.40
2017-07-16T05:25:55.821Z,68.20
2017-07-16T05:28:23.293Z,67.90
2017-07-16T05:30:50.772Z,68.20
2017-07-16T05:33:18.217Z,68.60
2017-07-16T05:35:45.714Z,68.90
2017-07-16T05:38:13.549Z,68.60
2017-07-16T05:40:41.009Z,68.60
2017-07-16T05:43:09.055Z,68.10
2017-07-16T05:45:36.517Z,68.30
2017-07-16T05:48:03.970Z,68.70
2017-07-16T05:50:31.489Z,68.80
2017-07-16T05:52:58.984Z,69.20
2017-07-16T05:55:26.439Z,69.30
2017-07-16T05:57:53.912Z,69.20
2017-07-16T06:00:21.381Z,69.30
2017-07-16T06:02:48.857Z,69.20
2017-07-16T06:05:16.306Z,69.10
2017-07-16T06:07:43.805Z,69.70
2017-07-16T06:10:11.343Z,69.10
2017-07-16T06:12:38.779Z,68.70
2017-07-16T06:15:06.230Z,68.40
2017-07-16T06:17:33.705Z,68.70
2017-07-16T06:20:01.155Z,68.30
2017-07-16T06:22:29.029Z,68.10
2017-07-16T06:24:56.876Z,68.50
2017-07-16T06:27:24.365Z,68.50
2017-07-16T06:29:51.805Z,68.60
2017-07-16T06:32:19.260Z,68.30
2017-07-16T06:34:46.757Z,68.30
2017-07-16T06:37:14.614Z,67.90
2017-07-16T06:39:42.811Z,67.80
2017-07-16T06:42:10.304Z,67.70
2017-07-16T06:44:37.868Z,67.60
2017-07-16T06:47:05.549Z,67.80
2017-07-16T06:49:33.564Z,67.80
2017-07-16T06:52:01.411Z,66.90
2017-07-16T06:54:28.924Z,66.90
2017-07-16T06:56:57.248Z,66.80
2017-07-16T06:59:24.733Z,66.60
2017-07-16T07:01:52.207Z,66.80
2017-07-16T07:04:19.662Z,66.50
2017-07-16T07:06:47.141Z,66.30
2017-07-16T07:09:14.657Z,66.40
2017-07-16T07:11:42.150Z,66.30
2017-07-16T07:14:09.797Z,66.10
2017-07-16T07:16:37.255Z,66.10
2017-07-16T07:19:04.777Z,66.20
2017-07-16T07:21:32.283Z,65.00
2017-07-16T07:23:59.739Z,64.80
2017-07-16T07:26:27.387Z,64.80
2017-07-16T07:28:54.831Z,64.70
2017-07-16T07:31:22.284Z,64.80
2017-07-16T07:33:50.150Z,64.40
2017-07-16T07:36:18.589Z,64.30
2017-07-16T07:38:46.054Z,64.10
2017-07-16T07:41:13.516Z,64.00
2017-07-16T07:43:40.996Z,63.90
2017-07-16T07:46:08.469Z,63.50
2017-07-16T07:48:35.919Z,63.50
2017-07-16T07:51:03.396Z,63.50
2017-07-16T07:53:30.866Z,63.40
2017-07-16T07:55:58.370Z,63.50
2017-07-16T07:58:25.844Z,63.50
2017-07-16T08:00:53.284Z,63.50
2017-07-16T08:03:20.941Z,63.70
2017-07-16T08:05:48.391Z,63.50
2017-07-16T08:08:16.243Z,63.00
2017-07-16T08:10:43.929Z,63.00
2017-07-16T08:13:12.224Z,63.00
2017-07-16T08:15:39.681Z,63.00
2017-07-16T08:18:07.713Z,62.30
2017-07-16T08:20:35.225Z,62.30
2017-07-16T08:23:02.675Z,62.60
2017-07-16T08:25:30.551Z,62.40
2017-07-16T08:27:58.018Z,62.40
2017-07-16T08:30:25.689Z,61.90
2017-07-16T08:32:53.156Z,61.60
2017-07-16T08:35:20.622Z,62.00
2017-07-16T08:37:48.125Z,61.90
2017-07-16T08:40:15.568Z,61.80
2017-07-16T08:42:43.043Z,60.20
2017-07-16T08:45:10.552Z,60.40
2017-07-16T08:47:38.018Z,60.60
2017-07-16T08:50:05.465Z,60.50
2017-07-16T08:52:32.965Z,60.50
2017-07-16T08:55:00.403Z,60.40
2017-07-16T08:57:28.281Z,60.10
2017-07-16T08:59:56.192Z,59.90
2017-07-16T09:02:23.671Z,59.90
2017-07-16T09:04:51.420Z,59.60
2017-07-16T09:07:18.893Z,59.40
2017-07-16T09:09:46.349Z,59.60
2017-07-16T09:12:13.974Z,59.50
2017-07-16T09:14:41.847Z,59.70
2017-07-16T09:17:09.716Z,60.10
2017-07-16T09:19:37.813Z,60.00
2017-07-16T09:22:06.120Z,60.00
2017-07-16T09:24:33.576Z,60.40
2017-07-16T09:27:01.064Z,59.50
2017-07-16T09:29:29.241Z,59.90
2017-07-16T09:31:57.658Z,60.10
2017-07-16T09:34:25.280Z,59.80
2017-07-16T09:36:52.763Z,59.70
2017-07-16T09:39:20.245Z,58.90
2017-07-16T09:41:48.167Z,60.00
2017-07-16T09:44:15.641Z,60.00
2017-07-16T09:46:43.104Z,60.10
2017-07-16T09:49:11.429Z,58.90
2017-07-16T09:51:38.905Z,58.70
2017-07-16T09:54:06.779Z,59.10
2017-07-16T09:56:34.669Z,59.10
2017-07-16T09:59:02.161Z,59.10
2017-07-16T10:01:29.616Z,59.20
2017-07-16T10:03:57.089Z,59.30
2017-07-16T10:06:24.577Z,59.50
2017-07-16T10:08:52.025Z,60.00
2017-07-16T10:11:19.488Z,60.60
2017-07-16T10:13:47.173Z,60.50
2017-07-16T10:16:15.436Z,60.10
2017-07-16T10:18:42.889Z,60.30
2017-07-16T10:21:10.423Z,61.10
2017-07-16T10:23:37.877Z,61.10
2017-07-16T10:26:05.348Z,60.80
2017-07-16T10:28:32.845Z,60.90
2017-07-16T10:31:00.315Z,61.30
2017-07-16T10:33:28.672Z,61.30
2017-07-16T10:35:56.590Z,60.80
2017-07-16T10:38:24.281Z,60.90
2017-07-16T10:40:52.136Z,61.20
2017-07-16T10:43:19.632Z,61.20
2017-07-16T10:45:47.093Z,61.40
2017-07-16T10:48:14.564Z,60.40
2017-07-16T10:50:42.095Z,60.80
2017-07-16T10:53:10.833Z,60.60
2017-07-16T10:55:38.278Z,60.60
2017-07-16T10:58:05.802Z,60.20
2017-07-16T11:00:33.280Z,60.40
2017-07-16T11:03:00.830Z,60.00
2017-07-16T11:05:28.729Z,60.40
2017-07-16T11:07:56.235Z,60.50
2017-07-16T11:10:23.830Z,60.40
2017-07-16T11:12:51.285Z,60.10
2017-07-16T11:15:18.757Z,60.20
2017-07-16T11:17:47.296Z,60.20
2017-07-16T11:20:14.757Z,60.20
2017-07-16T11:22:42.251Z,59.70
2017-07-16T11:25:11.871Z,60.20
2017-07-16T11:27:39.500Z,58.90
2017-07-16T11:35:54.393Z,59.30
2017-07-16T11:38:21.875Z,58.80
2017-07-16T11:40:49.345Z,58.70
2017-07-16T11:43:16.836Z,58.50
2017-07-16T11:45:45.141Z,58.80
2017-07-16T11:48:12.628Z,58.80
2017-07-16T11:50:40.269Z,59.00
2017-07-16T11:53:07.773Z,58.90
2017-07-16T11:55:35.248Z,58.80
2017-07-16T11:58:02.848Z,58.70
2017-07-16T12:00:30.931Z,59.30
2017-07-16T12:02:58.886Z,58.90
2017-07-16T12:05:26.380Z,58.80
2017-07-16T12:07:53.872Z,59.30
2017-07-16T12:10:21.331Z,59.10
2017-07-16T12:12:51.307Z,59.50
2017-07-16T12:15:18.856Z,59.10
2017-07-16T12:17:46.318Z,58.80
2017-07-16T12:20:14.185Z,59.40
2017-07-16T12:22:41.697Z,59.40
2017-07-16T12:25:09.209Z,59.00
2017-07-16T12:27:36.694Z,59.00
2017-07-16T12:30:04.607Z,58.70
2017-07-16T12:32:32.081Z,58.70
2017-07-16T12:34:59.546Z,59.10
2017-07-16T12:37:27.134Z,58.80
2017-07-16T12:39:54.600Z,59.00
2017-07-16T12:42:23.028Z,59.30
2017-07-16T12:44:50.559Z,59.10
2017-07-16T12:47:19.269Z,59.90
2017-07-16T12:49:46.767Z,59.90
2017-07-16T12:52:15.196Z,59.90
2017-07-16T12:54:44.244Z,59.90
2017-07-16T12:57:11.739Z,59.00
2017-07-16T13:03:46.945Z,59.20
2017-07-16T13:06:14.438Z,58.90
2017-07-16T13:08:41.884Z,58.60
2017-07-16T13:11:09.418Z,58.30
2017-07-16T13:13:36.889Z,58.40
2017-07-16T13:16:04.384Z,59.20
2017-07-16T13:18:32.411Z,58.70
2017-07-16T13:21:01.172Z,58.30
2017-07-16T13:23:29.788Z,58.30
2017-07-16T13:25:57.966Z,59.10
2017-07-16T13:28:26.669Z,58.30
2017-07-16T13:30:55.712Z,58.10
2017-07-16T13:33:24.718Z,58.80
2017-07-16T13:35:53.455Z,58.40
2017-07-16T13:38:22.203Z,58.40
2017-07-16T13:40:51.104Z,58.30
2017-07-16T13:43:19.352Z,59.00
2017-07-16T13:45:48.202Z,58.60
2017-07-16T13:48:16.507Z,58.60
2017-07-16T13:50:44.865Z,58.70
2017-07-16T13:53:13.625Z,58.90
2017-07-16T13:55:42.282Z,58.80
2017-07-16T13:58:10.425Z,58.10
2017-07-16T14:00:38.526Z,59.00
2017-07-16T14:03:06.527Z,58.00
2017-07-16T14:05:35.008Z,57.50
2017-07-16T14:08:03.272Z,57.40
2017-07-16T14:10:31.996Z,58.20
2017-07-16T14:13:01.342Z,57.50
2017-07-16T14:15:29.376Z,57.50
2017-07-16T14:17:59.786Z,57.50
2017-07-16T14:20:28.005Z,57.50
2017-07-16T14:22:57.581Z,57.20
2017-07-16T14:25:26.668Z,56.70
2017-07-16T14:27:55.948Z,56.60
2017-07-16T14:30:25.365Z,56.70
2017-07-16T14:32:54.811Z,56.20
2017-07-16T14:35:23.214Z,56.20
2017-07-16T14:37:52.620Z,56.30
2017-07-16T14:40:21.356Z,56.50
2017-07-16T14:42:50.095Z,56.70
2017-07-16T14:45:18.715Z,57.20
2017-07-16T14:47:47.542Z,56.90
2017-07-16T14:50:15.631Z,56.50
2017-07-16T14:52:44.466Z,56.60
2017-07-16T14:55:12.589Z,56.60
2017-07-16T14:57:41.094Z,56.50
2017-07-16T15:00:10.707Z,56.60
2017-07-16T15:02:39.530Z,56.50
2017-07-16T15:05:08.283Z,56.20
2017-07-16T15:07:37.397Z,56.40
2017-07-16T15:10:06.226Z,56.80
2017-07-16T15:12:35.176Z,56.80
2017-07-16T15:15:04.207Z,57.10
2017-07-16T15:17:33.665Z,57.30
2017-07-16T15:20:02.139Z,57.30
2017-07-16T15:22:30.598Z,57.40
2017-07-16T15:24:59.192Z,57.30
2017-07-16T15:27:27.766Z,57.20
2017-07-16T15:29:56.366Z,57.10
2017-07-16T15:32:25.214Z,57.30
2017-07-16T15:34:54.591Z,57.30
2017-07-16T15:37:23.172Z,57.40
2017-07-16T15:39:51.779Z,57.40
2017-07-16T15:42:20.597Z,57.80
2017-07-16T15:44:49.793Z,57.50
2017-07-16T15:47:18.549Z,57.60
2017-07-16T15:49:46.987Z,57.60
2017-07-16T15:52:15.978Z,57.60
2017-07-16T15:54:44.504Z,58.00
2017-07-16T15:57:13.222Z,58.00
2017-07-16T15:59:41.347Z,57.60
2017-07-16T16:02:09.493Z,57.60
2017-07-16T16:04:38.086Z,57.50
2017-07-16T16:07:06.972Z,57.80
2017-07-16T16:09:36.086Z,57.80
2017-07-16T16:12:04.800Z,57.80
2017-07-16T16:14:33.489Z,57.80
2017-07-16T16:17:02.516Z,57.80
2017-07-16T16:19:31.113Z,57.80
2017-07-16T16:21:59.134Z,57.80
2017-07-16T16:24:27.045Z,58.10
2017-07-16T16:26:55.874Z,58.10
2017-07-16T16:29:24.639Z,58.10
2017-07-16T16:31:53.103Z,58.20
2017-07-16T16:34:21.558Z,58.00
2017-07-16T16:36:50.249Z,58.50
2017-07-16T16:39:18.824Z,58.50
2017-07-16T16:41:47.992Z,58.20
2017-07-16T16:44:16.310Z,58.20
2017-07-16T16:46:45.193Z,58.60
2017-07-16T16:49:13.957Z,58.90
2017-07-16T16:51:43.455Z,58.80
2017-07-16T16:54:11.861Z,58.90
2017-07-16T16:56:40.196Z,58.80
2017-07-16T16:59:08.433Z,58.90
2017-07-16T17:01:36.761Z,58.80
2017-07-16T17:04:05.045Z,59.00
2017-07-16T17:06:34.223Z,59.10
2017-07-16T17:09:02.757Z,59.30
2017-07-16T17:11:31.118Z,59.30
2017-07-16T17:13:59.170Z,59.50
2017-07-16T17:16:28.034Z,59.80
2017-07-16T17:18:56.373Z,59.80
2017-07-16T17:21:25.076Z,60.00
2017-07-16T17:23:54.475Z,60.20
2017-07-16T17:26:24.445Z,60.20
2017-07-16T17:28:52.043Z,60.20
2017-07-16T17:31:19.600Z,60.40
2017-07-16T17:33:47.130Z,60.40
2017-07-16T17:36:15.043Z,60.10
2017-07-16T17:38:42.638Z,60.10
2017-07-16T17:41:10.171Z,60.20
2017-07-16T17:43:37.677Z,60.60
2017-07-16T17:46:05.201Z,60.70
2017-07-16T17:48:33.132Z,60.70
2017-07-16T17:51:01.527Z,60.70
2017-07-16T17:53:29.469Z,60.90
2017-07-16T17:55:57.091Z,60.90
2017-07-16T17:58:25.400Z,60.90
2017-07-16T18:00:53.022Z,60.90
2017-07-16T18:03:21.426Z,61.00
2017-07-16T18:05:49.083Z,61.30
2017-07-16T18:08:16.610Z,61.50
2017-07-16T18:10:44.206Z,61.60
2017-07-16T18:13:11.707Z,61.60
2017-07-16T18:15:39.592Z,61.60
2017-07-16T18:18:07.202Z,61.50
2017-07-16T18:20:35.160Z,61.80
2017-07-16T18:23:03.171Z,61.80
2017-07-16T18:25:30.794Z,61.80
2017-07-16T18:27:58.717Z,62.00
2017-07-16T18:30:26.391Z,62.00
2017-07-16T18:32:53.912Z,62.10
2017-07-16T18:35:22.587Z,62.00
2017-07-16T18:37:50.577Z,62.00
2017-07-16T18:40:18.481Z,61.90
2017-07-16T18:42:46.107Z,62.00
2017-07-16T18:45:14.240Z,62.00
2017-07-16T18:47:42.268Z,62.10
2017-07-16T18:50:10.185Z,62.10
2017-07-16T18:52:37.730Z,62.10
2017-07-16T18:55:05.287Z,62.20
2017-07-16T18:57:32.865Z,62.40
2017-07-16T19:00:00.423Z,62.70
2017-07-16T19:02:27.934Z,62.60
2017-07-16T19:04:55.558Z,62.80
2017-07-16T19:07:24.418Z,63.00
2017-07-16T19:09:51.974Z,63.00
2017-07-16T19:12:19.998Z,62.90
2017-07-16T19:14:47.811Z,62.90
2017-07-16T19:17:15.342Z,62.80
2017-07-16T19:19:42.979Z,62.80
2017-07-16T19:22:10.583Z,63.10
2017-07-16T19:24:39.038Z,63.10
2017-07-16T19:27:06.540Z,63.20
2017-07-16T19:29:34.546Z,63.30
2017-07-16T19:32:02.203Z,63.30
2017-07-16T19:34:30.209Z,63.60
2017-07-16T19:36:57.745Z,63.60
2017-07-16T19:39:25.744Z,63.90
2017-07-16T19:41:53.297Z,63.90
2017-07-16T19:44:20.850Z,64.00
2017-07-16T19:46:48.528Z,64.20
2017-07-16T19:49:16.287Z,64.40
2017-07-16T19:51:43.883Z,64.60
2017-07-16T19:54:11.577Z,64.80
2017-07-16T19:56:39.567Z,65.00
2017-07-16T19:59:08.241Z,65.20
2017-07-16T20:01:35.881Z,65.20
2017-07-16T20:04:03.571Z,65.40
2017-07-16T20:06:31.296Z,65.60
2017-07-16T20:08:58.893Z,65.80
2017-07-16T20:11:26.525Z,66.00
2017-07-16T20:13:54.202Z,66.20
2017-07-16T20:16:21.766Z,66.40
2017-07-16T20:18:49.579Z,66.60
2017-07-16T20:21:17.277Z,66.90
2017-07-16T20:23:45.495Z,67.40
2017-07-16T20:26:13.107Z,67.40
2017-07-16T20:28:41.099Z,67.60
2017-07-16T20:31:09.680Z,67.80
2017-07-16T20:33:38.255Z,67.90
2017-07-16T20:36:05.883Z,67.90
2017-07-16T20:38:33.665Z,68.20
2017-07-16T20:41:01.196Z,68.40
2017-07-16T20:43:28.818Z,68.50
2017-07-16T20:45:56.446Z,68.70
2017-07-16T20:48:23.951Z,68.90
2017-07-16T20:50:51.462Z,69.00
2017-07-16T20:53:19.190Z,69.20
2017-07-16T20:55:47.184Z,69.50
2017-07-16T20:58:14.828Z,69.50
2017-07-16T21:00:42.841Z,69.80
2017-07-16T21:03:13.655Z,69.80
2017-07-16T21:05:41.254Z,69.80
2017-07-16T21:08:08.843Z,69.90
2017-07-16T21:10:37.666Z,70.20
2017-07-16T21:13:05.528Z,70.30
2017-07-16T21:15:33.580Z,70.30
2017-07-16T21:18:01.038Z,70.30
2017-07-16T21:20:28.489Z,70.50
2017-07-16T21:22:55.985Z,70.60
2017-07-16T21:25:23.745Z,70.80
2017-07-16T21:27:51.199Z,71.00
2017-07-16T21:30:19.290Z,71.20
2017-07-16T21:32:46.761Z,71.20
2017-07-16T21:35:14.705Z,71.20
2017-07-16T21:37:42.267Z,71.10
2017-07-16T21:40:09.790Z,71.10
2017-07-16T21:42:37.693Z,71.30
2017-07-16T21:45:05.246Z,71.30
2017-07-16T21:47:32.788Z,71.30
2017-07-16T21:50:00.332Z,71.40
2017-07-16T21:52:28.251Z,71.40
2017-07-16T21:54:55.748Z,71.40
2017-07-16T21:57:23.328Z,71.40
2017-07-16T21:59:51.336Z,71.40
2017-07-16T22:02:18.849Z,71.40
2017-07-16T22:04:46.707Z,71.40
2017-07-16T22:07:14.326Z,71.50
2017-07-16T22:09:41.834Z,71.60
2017-07-16T22:12:09.430Z,71.70
2017-07-16T22:14:37.337Z,71.80
2017-07-16T22:17:04.865Z,71.80
2017-07-16T22:19:32.391Z,71.70
2017-07-16T22:22:00.757Z,71.80
2017-07-16T22:24:28.479Z,71.70
2017-07-16T22:26:56.374Z,72.00
2017-07-16T22:29:23.982Z,72.00
2017-07-16T22:31:51.607Z,72.10
2017-07-16T22:34:19.402Z,72.10
2017-07-16T22:36:47.059Z,72.10
2017-07-16T22:39:14.855Z,72.20
2017-07-16T22:41:42.451Z,72.10
2017-07-16T22:44:09.999Z,72.20
2017-07-16T22:46:38.406Z,72.30
2017-07-16T22:49:06.497Z,72.40
2017-07-16T22:51:34.099Z,72.40
2017-07-16T22:54:01.871Z,72.40
2017-07-16T22:56:29.632Z,72.40
2017-07-16T22:58:57.344Z,72.50
2017-07-16T23:01:24.922Z,72.50
2017-07-16T23:03:52.869Z,72.50
2017-07-16T23:06:20.410Z,72.50
2017-07-16T23:08:48.477Z,72.70
2017-07-16T23:11:16.157Z,72.60
2017-07-16T23:13:44.034Z,72.60
2017-07-16T23:16:13.662Z,72.70
2017-07-16T23:18:41.293Z,72.80
2017-07-16T23:21:08.952Z,72.90
2017-07-16T23:23:36.641Z,72.90
2017-07-16T23:26:04.338Z,73.00
2017-07-16T23:28:31.900Z,73.00
2017-07-16T23:30:59.538Z,73.10
2017-07-16T23:33:27.040Z,73.00
2017-07-16T23:35:55.041Z,72.90
2017-07-16T23:38:22.870Z,72.90
2017-07-16T23:40:50.489Z,72.90
2017-07-16T23:43:18.028Z,73.00
2017-07-16T23:45:45.651Z,73.10
2017-07-16T23:48:13.202Z,73.10
2017-07-16T23:50:40.941Z,73.20
2017-07-16T23:53:08.828Z,73.20
2017-07-16T23:55:36.315Z,73.20
2017-07-16T23:58:05.075Z,73.30
